Time;durP1;ratioP1;P1;durP2;ratioP2;P2;SDS_P1;SDS_P2;PMS_P1;PMS_P2;Temp;Humidity;BMP_temperature;BMP_pressure;BME280_temperature;BME280_humidity;BME280_pressure;Samples;Min_cycle;Max_cycle;Signal;HPM_P1;HPM_P2
2022/10/05 05:04:28;;;;;;;9.23;4.33;;;;;;;8.58;100.00;99932.87;1680802;83;20975;-79
2022/10/05 05:07:28;;;;;;;5.65;3.95;;;;;;;8.59;100.00;99938.61;1681899;85;21537;-81
2022/10/05 05:10:24;;;;;;;7.70;4.90;;;;;;;8.60;100.00;99950.38;1666261;84;21708;-75
2022/10/05 05:13:43;;;;;;;7.12;4.20;;;;;;;8.62;100.00;99957.73;1680835;84;20956;-77
2022/10/05 05:16:23;;;;;;;8.90;4.25;;;;;;;8.62;100.00;99953.63;1648164;86;21034;-74
2022/10/05 05:19:20;;;;;;;11.03;4.67;;;;;;;8.63;100.00;99970.31;1681500;85;21010;-75
2022/10/05 05:21:55;;;;;;;10.68;4.20;;;;;;;8.65;100.00;99966.73;1648468;86;20954;-79
2022/10/05 05:24:56;;;;;;;8.90;4.37;;;;;;;8.66;100.00;99968.36;1681359;85;21264;-73
2022/10/05 05:27:54;;;;;;;7.33;4.22;;;;;;;8.68;100.00;99968.85;1648400;87;20911;-78
2022/10/05 05:30:40;;;;;;;14.45;4.95;;;;;;;8.69;100.00;99968.30;1679013;85;20908;-75
2022/10/05 05:33:22;;;;;;;10.13;4.47;;;;;;;8.72;100.00;99971.27;1646575;86;21035;-74
2022/10/05 05:35:59;;;;;;;10.50;4.22;;;;;;;8.75;100.00;99977.52;1647145;85;21496;-74
2022/10/05 05:38:49;;;;;;;16.48;5.28;;;;;;;8.78;100.00;99970.64;1648532;86;21084;-76
2022/10/05 05:41:39;;;;;;;10.28;4.50;;;;;;;8.79;100.00;99971.72;1642111;86;20991;-74
2022/10/05 05:44:23;;;;;;;10.15;3.90;;;;;;;8.84;100.00;99981.80;1561240;87;21105;-75
2022/10/05 05:47:05;;;;;;;7.42;4.10;;;;;;;8.85;100.00;99981.50;1647706;87;21004;-76
2022/10/05 05:49:58;;;;;;;10.50;4.15;;;;;;;8.89;100.00;99983.09;1648053;87;20971;-76
2022/10/05 05:52:39;;;;;;;6.53;3.70;;;;;;;8.92;100.00;99995.64;1648148;86;21861;-75
2022/10/05 05:55:14;;;;;;;;;;;;;;;8.98;100.00;99992.84;1621787;87;21087;-75
2022/10/05 05:57:59;;;;;;;11.03;3.85;;;;;;;9.07;100.00;99997.37;1635650;87;20129;-81
2022/10/05 06:00:48;;;;;;;9.13;3.62;;;;;;;9.20;100.00;99994.45;1616438;87;21058;-77
2022/10/05 06:03:49;;;;;;;5.17;3.80;;;;;;;9.22;100.00;99994.98;1655291;86;20947;-78
2022/10/05 06:06:43;;;;;;;6.45;3.40;;;;;;;9.21;100.00;99995.53;1619631;87;21671;-80
2022/10/05 06:09:34;;;;;;;9.53;3.52;;;;;;;9.23;100.00;100007.01;1595679;89;21079;-75
2022/10/05 06:12:26;;;;;;;13.22;3.72;;;;;;;9.33;100.00;100007.94;1595160;90;21133;-73
2022/10/05 06:15:13;;;;;;;10.93;5.33;;;;;;;9.40;100.00;100013.87;1659467;86;21011;-75
2022/10/05 06:17:51;;;;;;;10.65;6.08;;;;;;;9.60;100.00;100017.67;1620112;87;21283;-78
2022/10/05 06:20:40;;;;;;;13.30;7.28;;;;;;;9.87;100.00;100021.88;1661718;86;21070;-85
2022/10/05 06:23:18;;;;;;;13.48;6.15;;;;;;;10.07;100.00;100025.39;1620308;86;21085;-84
2022/10/05 06:25:59;;;;;;;12.80;6.35;;;;;;;10.08;100.00;100028.39;1653416;86;21499;-75
2022/10/05 06:28:26;;;;;;;8.10;4.08;;;;;;;9.99;100.00;100035.12;1652501;86;20991;-75
2022/10/05 06:31:36;;;;;;;8.48;4.50;;;;;;;9.94;100.00;100044.25;1628205;85;21511;-74
2022/10/05 06:34:20;;;;;;;8.83;4.58;;;;;;;9.94;100.00;100047.55;1653709;86;21164;-76
2022/10/05 06:36:52;;;;;;;5.80;3.67;;;;;;;9.94;100.00;100053.84;1651663;86;21551;-72
2022/10/05 06:39:52;;;;;;;10.50;4.40;;;;;;;9.90;100.00;100050.07;1651649;85;21071;-74
2022/10/05 06:42:44;;;;;;;5.75;3.87;;;;;;;9.88;100.00;100048.19;1651706;86;21035;-74
2022/10/05 06:45:33;;;;;;;12.55;6.20;;;;;;;9.93;100.00;100051.41;1652621;86;21038;-74
2022/10/05 06:48:27;;;;;;;9.53;3.98;;;;;;;10.01;100.00;100050.72;1653669;86;21108;-75
2022/10/05 06:51:06;;;;;;;12.37;5.97;;;;;;;10.15;100.00;100045.28;1653614;86;21007;-72
2022/10/05 06:54:22;;;;;;;13.70;5.97;;;;;;;10.38;100.00;100047.10;1634466;87;21050;-75
2022/10/05 06:56:59;;;;;;;6.75;2.90;;;;;;;10.63;100.00;100048.53;1588901;90;21530;-73
2022/10/05 06:59:52;;;;;;;6.80;2.75;;;;;;;10.79;100.00;100055.36;1635490;86;21057;-68
2022/10/05 07:02:37;;;;;;;10.93;3.67;;;;;;;10.82;100.00;100051.19;1653417;86;21234;-76
2022/10/05 07:05:21;;;;;;;7.90;3.20;;;;;;;10.84;100.00;100055.26;1653353;86;21006;-68
2022/10/05 07:08:12;;;;;;;7.65;3.58;;;;;;;10.85;100.00;100054.14;1653057;85;21006;-69
2022/10/05 07:11:13;;;;;;;9.90;3.62;;;;;;;10.86;100.00;100064.01;1653359;85;21058;-70
2022/10/05 07:13:55;;;;;;;5.67;3.00;;;;;;;10.98;100.00;100058.54;1651848;85;21046;-71
2022/10/05 07:17:02;;;;;;;6.12;2.45;;;;;;;11.33;100.00;100066.60;1652327;85;21886;-72
2022/10/05 07:19:43;;;;;;;5.40;2.72;;;;;;;11.61;100.00;100065.39;1639693;86;20997;-70
2022/10/05 07:22:34;;;;;;;7.67;3.45;;;;;;;11.83;100.00;100058.58;1630344;87;21527;-71
2022/10/05 07:25:13;;;;;;;8.60;2.27;;;;;;;12.12;100.00;100060.09;1630350;87;21056;-83
2022/10/05 07:28:11;;;;;;;3.45;2.30;;;;;;;12.40;100.00;100067.05;1630344;87;21027;-84
2022/10/05 07:31:09;;;;;;;6.10;2.20;;;;;;;12.62;100.00;100068.95;1629963;86;21596;-76
2022/10/05 07:34:30;;;;;;;5.28;2.10;;;;;;;12.97;100.00;100064.37;1618360;86;20982;-87
2022/10/05 07:43:44;;;;;;;7.78;3.80;;;;;;;13.19;93.55;100087.75;1478092;94;21134;-80
2022/10/05 07:46:44;;;;;;;10.45;2.67;;;;;;;13.42;92.76;100091.19;1607480;86;21061;-77
2022/10/05 07:50:03;;;;;;;3.52;1.90;;;;;;;13.46;90.41;100099.63;1653492;86;21057;-75
2022/10/05 07:52:37;;;;;;;4.37;2.15;;;;;;;13.41;88.95;100101.97;1652877;85;21015;-75
2022/10/05 07:55:19;;;;;;;5.50;1.85;;;;;;;13.54;87.23;100101.03;1652571;86;21066;-75
2022/10/05 07:58:22;;;;;;;3.95;1.62;;;;;;;13.64;88.35;100092.20;1619756;88;21106;-74
2022/10/05 08:01:05;;;;;;;5.20;2.00;;;;;;;13.82;88.06;100107.08;1686992;83;21880;-76
2022/10/05 08:04:04;;;;;;;;;;;;;;;14.09;86.86;100104.54;1664510;86;20970;-74
2022/10/05 08:06:45;;;;;;;2.75;2.02;;;;;;;14.12;85.15;100091.47;1623985;86;20141;-73
2022/10/05 08:09:34;;;;;;;4.87;1.82;;;;;;;14.02;82.42;100089.60;1621459;88;21027;-76
2022/10/05 08:12:22;;;;;;;5.65;2.42;;;;;;;13.84;81.22;100081.92;1641012;87;21095;-78
2022/10/05 08:15:13;;;;;;;3.10;1.70;;;;;;;13.76;84.84;100086.86;1648038;87;21266;-74
2022/10/05 08:18:01;;;;;;;6.90;1.60;;;;;;;13.68;83.21;100089.86;1649115;86;20999;-75
2022/10/05 08:20:54;;;;;;;4.50;2.40;;;;;;;13.36;84.01;100086.95;1613044;88;21102;-72
2022/10/05 08:23:50;;;;;;;6.75;2.85;;;;;;;13.04;85.04;100078.51;1565636;90;21103;-77
2022/10/05 08:26:37;;;;;;;9.98;2.80;;;;;;;12.73;86.36;100083.23;1593854;90;21124;-75
2022/10/05 08:29:30;;;;;;;7.85;2.90;;;;;;;12.52;87.79;100087.13;1593802;89;21130;-74
2022/10/05 08:32:03;;;;;;;11.95;3.60;;;;;;;12.50;90.33;100096.27;1593993;90;21674;-84
2022/10/05 08:35:00;;;;;;;6.97;3.00;;;;;;;12.85;91.35;100093.09;1610443;87;21004;-79
2022/10/05 08:37:31;;;;;;;6.00;2.10;;;;;;;13.25;91.00;100091.74;1594581;90;21008;-76
2022/10/05 08:40:36;;;;;;;6.40;1.80;;;;;;;14.03;84.68;100093.41;1575899;90;21004;-81
2022/10/05 08:43:45;;;;;;;3.65;2.20;;;;;;;14.53;79.46;100082.62;1609937;89;21189;-74
2022/10/05 08:46:57;;;;;;;3.02;1.65;;;;;;;14.91;79.12;100087.39;1593791;90;21012;-73
2022/10/05 08:50:15;;;;;;;3.83;2.35;;;;;;;14.84;75.51;100098.15;1593881;90;21465;-75
2022/10/05 08:53:20;;;;;;;4.42;2.02;;;;;;;14.40;76.91;100108.49;1610935;88;21083;-76
2022/10/05 08:56:45;;;;;;;5.75;1.80;;;;;;;14.09;78.07;100117.53;1594283;90;21029;-74
2022/10/05 08:59:35;;;;;;;3.55;1.50;;;;;;;14.03;78.44;100119.64;1594487;89;21197;-75
2022/10/05 09:02:17;;;;;;;7.67;1.32;;;;;;;14.14;78.11;100121.51;1593413;90;20905;-79
2022/10/05 09:05:01;;;;;;;3.10;1.93;;;;;;;14.50;75.82;100126.67;1610502;87;20971;-75
2022/10/05 09:07:48;;;;;;;7.35;1.40;;;;;;;14.58;74.29;100130.56;1644305;87;21565;-75
2022/10/05 09:10:37;;;;;;;4.85;2.35;;;;;;;14.35;73.37;100152.04;1614986;87;21428;-75
2022/10/05 09:13:18;;;;;;;11.85;5.05;;;;;;;13.98;74.61;100150.16;1643507;86;21064;-75
2022/10/05 09:15:56;;;;;;;18.67;8.53;;;;;;;13.58;75.88;100141.77;1611849;87;21570;-79
2022/10/05 09:19:04;;;;;;;8.10;4.53;;;;;;;13.20;77.21;100142.33;1624760;87;20928;-75
2022/10/05 09:21:58;;;;;;;4.85;1.62;;;;;;;12.98;80.09;100140.41;1614507;87;20979;-73
2022/10/05 09:24:57;;;;;;;2.70;1.47;;;;;;;12.94;80.75;100120.12;1643457;86;21067;-75
2022/10/05 09:27:35;;;;;;;2.20;1.50;;;;;;;13.09;80.98;100127.17;1611404;87;21015;-76
2022/10/05 09:30:24;;;;;;;2.72;1.15;;;;;;;13.43;79.75;100128.67;1643054;87;21011;-74
2022/10/05 09:33:47;;;;;;;2.05;1.52;;;;;;;13.61;78.80;100110.78;1611513;87;21645;-73
2022/10/05 09:37:08;;;;;;;5.58;2.20;;;;;;;13.72;78.94;100123.13;1642281;86;20948;-75
2022/10/05 09:40:05;;;;;;;2.60;1.80;;;;;;;13.78;76.46;100119.89;1601568;89;21043;-72
2022/10/05 09:42:55;;;;;;;2.95;1.60;;;;;;;13.83;76.01;100136.30;1642952;87;21794;-73
2022/10/05 09:45:43;;;;;;;2.80;1.60;;;;;;;13.76;77.18;100140.09;1611434;87;21296;-74
2022/10/05 09:48:41;;;;;;;8.10;2.77;;;;;;;13.68;77.62;100135.95;1607135;87;21573;-74
2022/10/05 09:51:39;;;;;;;4.40;1.82;;;;;;;13.54;78.44;100140.21;1643485;87;21072;-72
2022/10/05 09:54:34;;;;;;;3.77;1.87;;;;;;;13.54;79.61;100139.65;1643304;87;21051;-74
2022/10/05 09:57:48;;;;;;;6.00;2.62;;;;;;;13.60;79.60;100136.73;1643311;87;21078;-77
2022/10/05 10:00:55;;;;;;;4.95;2.77;;;;;;;13.59;78.46;100135.92;1643958;87;21006;-75
2022/10/05 10:03:58;;;;;;;4.78;1.70;;;;;;;13.54;79.17;100141.59;1643388;86;21067;-75
2022/10/05 10:06:45;;;;;;;3.95;1.85;;;;;;;13.55;78.96;100144.03;1611826;87;21011;-75
2022/10/05 10:09:57;;;;;;;4.55;1.70;;;;;;;13.72;78.39;100150.16;1594231;89;21630;-73
2022/10/05 10:12:36;;;;;;;3.17;1.45;;;;;;;13.88;77.27;100147.15;1596944;89;20995;-75
2022/10/05 10:15:44;;;;;;;4.30;1.98;;;;;;;14.08;75.36;100147.66;1584754;89;21163;-75
2022/10/05 10:18:28;;;;;;;4.05;1.92;;;;;;;14.11;75.98;100141.48;1598801;89;21060;-74
2022/10/05 10:21:35;;;;;;;2.50;1.57;;;;;;;14.34;77.63;100142.94;1599021;89;21083;-76
2022/10/05 10:24:52;;;;;;;1.67;1.22;;;;;;;15.01;78.53;100134.59;1598743;89;21063;-76
2022/10/05 10:27:47;;;;;;;3.55;1.87;;;;;;;15.56;72.57;100135.05;1595914;89;21103;-73
2022/10/05 10:30:47;;;;;;;6.72;1.40;;;;;;;15.57;70.33;100141.66;1587932;90;21153;-75
2022/10/05 10:33:25;;;;;;;2.02;1.32;;;;;;;15.73;69.24;100148.78;1609577;88;21097;-76
2022/10/05 10:36:02;;;;;;;10.78;1.20;;;;;;;16.15;65.56;100141.31;1601466;89;21631;-77
2022/10/05 10:38:39;;;;;;;3.52;0.88;;;;;;;16.24;64.26;100145.37;1618309;87;21022;-76
2022/10/05 10:41:26;;;;;;;3.47;1.30;;;;;;;16.02;62.97;100145.17;1591936;89;21308;-76
2022/10/05 10:44:31;;;;;;;4.22;1.85;;;;;;;15.60;64.86;100147.10;1612572;87;20987;-74
2022/10/05 10:47:33;;;;;;;4.65;1.65;;;;;;;15.33;67.35;100152.50;1601165;89;21082;-73
2022/10/05 10:50:32;;;;;;;;;;;;;;;15.23;68.19;100155.06;1620524;88;21126;-78
2022/10/05 10:53:48;;;;;;;7.03;1.42;;;;;;;15.19;68.58;100154.91;1591188;89;20140;-77
2022/10/05 10:56:20;;;;;;;16.23;1.80;;;;;;;15.09;67.18;100148.36;1599009;88;22354;-75
2022/10/05 10:59:02;;;;;;;5.33;1.50;;;;;;;14.92;68.70;100151.78;1601643;89;21629;-73
2022/10/05 11:01:49;;;;;;;2.62;0.90;;;;;;;14.93;69.95;100152.02;1621142;88;21545;-74
2022/10/05 11:04:47;;;;;;;3.72;0.90;;;;;;;14.90;68.08;100149.92;1605759;89;21063;-84
2022/10/05 11:07:29;;;;;;;4.53;1.47;;;;;;;14.79;67.98;100140.59;1616154;87;21058;-86
2022/10/05 11:10:24;;;;;;;2.85;1.60;;;;;;;14.68;68.89;100139.32;1597726;89;21138;-82
2022/10/05 11:13:29;;;;;;;9.75;1.75;;;;;;;14.62;69.47;100144.78;1591324;89;20943;-78
2022/10/05 11:16:05;;;;;;;8.85;2.05;;;;;;;14.61;70.98;100148.68;1574179;90;21087;-82
2022/10/05 11:19:19;;;;;;;11.75;2.10;;;;;;;14.59;70.10;100155.10;1622723;88;21027;-84
2022/10/05 11:22:09;;;;;;;4.65;1.50;;;;;;;14.56;70.16;100154.95;1623509;85;21026;-79
2022/10/05 11:25:04;;;;;;;6.08;1.60;;;;;;;14.48;70.85;100156.58;1616365;88;21585;-78
2022/10/05 11:27:45;;;;;;;2.55;1.15;;;;;;;14.42;70.50;100154.59;1599131;89;21105;-84
2022/10/05 11:30:37;;;;;;;3.15;1.22;;;;;;;14.47;71.28;100148.86;1589787;89;21059;-73
2022/10/05 11:33:38;;;;;;;3.42;1.57;;;;;;;14.62;70.71;100137.88;1648705;86;21015;-76
2022/10/05 11:36:41;;;;;;;1.65;1.30;;;;;;;14.70;70.53;100150.05;1649200;86;20980;-75
2022/10/05 11:39:31;;;;;;;;;;;;;;;14.73;69.41;100147.44;1651582;87;21143;-73
2022/10/05 11:42:23;;;;;;;1.72;1.00;;;;;;;14.69;70.03;100147.05;1646396;87;20131;-73
2022/10/05 11:45:35;;;;;;;8.37;1.33;;;;;;;14.56;68.21;100143.33;1647301;87;21028;-73
2022/10/05 11:48:28;;;;;;;2.35;1.02;;;;;;;14.40;69.12;100147.16;1659881;86;20959;-73
2022/10/05 11:51:25;;;;;;;3.45;1.27;;;;;;;14.24;69.22;100154.31;1648874;87;21059;-74
2022/10/05 11:54:16;;;;;;;5.60;2.33;;;;;;;14.10;69.46;100153.66;1648950;87;21408;-73
2022/10/05 11:57:05;;;;;;;4.28;1.67;;;;;;;13.95;69.95;100154.14;1651267;86;21589;-78
2022/10/05 11:59:52;;;;;;;2.80;1.20;;;;;;;13.87;71.91;100155.75;1649351;87;21125;-78
2022/10/05 12:02:45;;;;;;;4.75;1.27;;;;;;;13.87;71.99;100152.42;1648312;85;21066;-77
2022/10/05 12:05:21;;;;;;;5.55;1.37;;;;;;;13.83;72.39;100155.61;1648247;86;21071;-79
2022/10/05 12:08:17;;;;;;;5.92;1.42;;;;;;;13.79;73.54;100157.39;1619453;87;21193;-78
2022/10/05 12:11:09;;;;;;;2.30;1.35;;;;;;;13.76;73.35;100164.94;1652327;86;21082;-79
2022/10/05 12:14:05;;;;;;;3.70;1.40;;;;;;;13.70;74.38;100173.12;1605076;87;21001;-78
2022/10/05 12:16:53;;;;;;;7.87;1.72;;;;;;;13.69;72.78;100174.25;1652071;86;21008;-79
2022/10/05 12:19:35;;;;;;;81.47;6.15;;;;;;;13.65;72.54;100171.08;1623096;88;21082;-79
2022/10/05 12:22:20;;;;;;;10.88;2.45;;;;;;;13.63;72.79;100179.67;1649159;86;21309;-78
2022/10/05 12:25:22;;;;;;;21.90;3.25;;;;;;;13.62;73.73;100180.80;1619879;87;21063;-83
2022/10/05 12:27:52;;;;;;;1285.45;135.75;;;;;;;13.64;74.76;100181.30;1652403;86;20983;-84
2022/10/05 12:30:57;;;;;;;33.30;3.52;;;;;;;13.63;73.72;100178.29;1652032;85;20999;-78
2022/10/05 12:33:32;;;;;;;821.00;69.40;;;;;;;13.61;72.82;100179.17;1620164;87;21027;-80
2022/10/05 12:36:13;;;;;;;32.38;4.37;;;;;;;13.57;73.98;100176.81;1596921;89;21256;-83
2022/10/05 12:39:04;;;;;;;13.22;2.33;;;;;;;13.60;74.53;100180.88;1619738;88;20963;-83
2022/10/05 12:41:35;;;;;;;6.28;2.10;;;;;;;13.63;73.77;100180.23;1652288;86;21081;-77
2022/10/05 12:44:13;;;;;;;41.30;3.72;;;;;;;13.62;73.37;100186.89;1620086;87;21042;-79
2022/10/05 12:46:54;;;;;;;9.65;2.08;;;;;;;13.59;73.81;100188.34;1652647;86;21019;-75
2022/10/05 12:49:39;;;;;;;4.22;1.52;;;;;;;13.59;73.88;100189.72;1651934;86;21730;-81
2022/10/05 12:52:09;;;;;;;11.55;2.58;;;;;;;13.57;74.36;100187.84;1628404;88;21018;-87
2022/10/05 12:54:57;;;;;;;5.37;1.95;;;;;;;13.55;74.10;100185.41;1606613;87;21052;-77
2022/10/05 12:57:47;;;;;;;2.90;1.35;;;;;;;13.53;74.85;100193.19;1622046;87;21023;-80
2022/10/05 13:00:18;;;;;;;2.95;1.62;;;;;;;13.49;74.26;100190.02;1601226;88;21073;-81
2022/10/05 13:02:50;;;;;;;3.33;1.65;;;;;;;13.44;74.87;100192.34;1606047;89;21063;-77
2022/10/05 13:05:44;;;;;;;5.28;1.60;;;;;;;13.42;75.56;100201.50;1629610;86;21038;-81
2022/10/05 13:08:22;;;;;;;5.80;1.60;;;;;;;13.42;75.64;100196.55;1616955;87;21550;-86
2022/10/05 13:11:01;;;;;;;5.85;2.33;;;;;;;13.46;76.49;100190.65;1591652;90;21535;-86
2022/10/05 13:13:40;;;;;;;33.23;3.12;;;;;;;13.57;76.36;100191.98;1609265;88;21061;-82
2022/10/05 13:16:15;;;;;;;9.08;2.52;;;;;;;13.71;74.20;100180.83;1593695;90;22452;-82
2022/10/05 13:19:08;;;;;;;10.15;1.57;;;;;;;13.85;74.45;100179.56;1611433;88;21000;-83
2022/10/05 13:21:59;;;;;;;9.77;1.57;;;;;;;13.98;73.75;100186.62;1621820;87;21055;-81
2022/10/05 13:25:06;;;;;;;4.17;1.57;;;;;;;14.17;73.51;100176.08;1608449;88;21015;-82
2022/10/05 13:27:41;;;;;;;16.20;2.40;;;;;;;14.38;73.03;100173.48;1594011;90;21105;-82
2022/10/05 13:30:18;;;;;;;92.50;6.97;;;;;;;14.58;73.17;100178.91;1609190;88;21219;-78
2022/10/05 13:33:06;;;;;;;5.95;1.80;;;;;;;14.68;73.85;100175.81;1593965;88;21040;-80
2022/10/05 13:36:01;;;;;;;20.30;2.83;;;;;;;14.72;72.05;100178.16;1591589;89;21042;-76
2022/10/05 13:39:00;;;;;;;226.30;24.92;;;;;;;14.63;71.20;100176.80;1609426;89;21012;-81
2022/10/05 13:41:49;;;;;;;17.20;3.30;;;;;;;14.51;71.27;100182.17;1568487;91;21070;-74
2022/10/05 13:44:42;;;;;;;9.93;2.62;;;;;;;14.39;70.77;100186.97;1601271;89;21216;-76
2022/10/05 13:47:23;;;;;;;140.88;12.43;;;;;;;14.24;70.72;100187.45;1594120;90;21007;-76
2022/10/05 13:49:56;;;;;;;39.30;3.35;;;;;;;14.05;70.48;100197.42;1650831;86;20972;-79
2022/10/05 13:52:58;;;;;;;80.15;7.12;;;;;;;13.93;71.19;100193.67;1650268;86;21051;-78
2022/10/05 13:55:59;;;;;;;50.90;6.12;;;;;;;13.85;72.05;100190.59;1645639;87;21558;-78
2022/10/05 13:58:43;;;;;;;1988.45;206.28;;;;;;;13.75;73.16;100204.70;1641354;87;21247;-79
2022/10/05 14:01:18;;;;;;;15.98;3.37;;;;;;;13.70;74.43;100202.66;1641241;87;21012;-90
2022/10/05 14:04:10;;;;;;;7.25;2.60;;;;;;;13.63;74.31;100196.22;1636655;87;21042;-78
2022/10/05 14:06:37;;;;;;;;;;;;;;;13.55;73.72;100196.44;1653697;86;21117;-76
2022/10/05 14:09:03;;;;;;;20.45;2.87;;;;;;;13.48;74.87;100196.66;1620963;88;20145;-77
2022/10/05 14:11:35;;;;;;;7.95;2.40;;;;;;;13.42;76.55;100197.94;1653477;86;21169;-84
2022/10/05 14:14:23;;;;;;;7.40;2.02;;;;;;;13.35;76.09;100199.77;1653685;86;21023;-85
2022/10/05 14:16:57;;;;;;;5.83;1.98;;;;;;;13.30;77.68;100199.09;1635483;86;21039;-90
2022/10/05 14:19:46;;;;;;;4.72;2.05;;;;;;;13.24;77.79;100200.39;1653267;86;21110;-78
2022/10/05 14:22:22;;;;;;;6.80;2.40;;;;;;;13.22;79.60;100202.09;1653165;86;21087;-77
2022/10/05 14:25:09;;;;;;;7.67;2.85;;;;;;;13.20;80.48;100202.98;1599277;88;21243;-76
2022/10/05 14:28:00;;;;;;;9.93;3.45;;;;;;;13.17;80.38;100200.85;1627420;87;21042;-84
2022/10/05 14:30:29;;;;;;;7.65;3.60;;;;;;;13.17;81.20;100189.83;1623915;88;21062;-84
2022/10/05 14:33:14;;;;;;;5.20;2.77;;;;;;;13.14;82.08;100183.53;1627038;86;21042;-80
2022/10/05 14:35:48;;;;;;;5.30;2.20;;;;;;;13.13;82.46;100187.42;1626789;88;21019;-79
2022/10/05 14:38:32;;;;;;;7.90;2.25;;;;;;;13.10;82.18;100193.00;1627263;88;21552;-83
2022/10/05 14:41:16;;;;;;;3.72;2.02;;;;;;;13.08;81.86;100192.50;1625243;88;21007;-83
2022/10/05 14:44:02;;;;;;;4.05;1.75;;;;;;;13.03;82.34;100194.02;1627226;88;21395;-78
2022/10/05 14:46:35;;;;;;;10.60;2.08;;;;;;;13.00;83.33;100200.73;1626688;88;21593;-78
2022/10/05 14:49:07;;;;;;;12.13;1.80;;;;;;;12.93;82.79;100201.73;1626073;88;21023;-78
2022/10/05 14:51:35;;;;;;;11.73;2.00;;;;;;;12.90;83.75;100205.38;1626433;88;21264;-81
2022/10/05 14:54:22;;;;;;;8.33;2.25;;;;;;;12.86;84.27;100197.48;1627056;88;21006;-80
2022/10/05 14:57:11;;;;;;;5.50;2.17;;;;;;;12.82;84.32;100195.11;1626920;88;21007;-79
2022/10/05 14:59:58;;;;;;;6.45;1.67;;;;;;;12.79;85.15;100194.92;1626412;88;21042;-77
2022/10/05 15:02:50;;;;;;;2.80;1.62;;;;;;;12.74;85.36;100190.36;1627000;88;20995;-79
2022/10/05 15:05:31;;;;;;;7.08;1.90;;;;;;;12.69;85.64;100191.08;1626779;88;21164;-79
2022/10/05 15:08:22;;;;;;;15.63;1.52;;;;;;;12.64;87.78;100196.72;1626663;87;21007;-79
2022/10/05 15:10:53;;;;;;;5.40;2.17;;;;;;;12.56;88.68;100191.39;1627307;88;21027;-80
2022/10/05 15:13:24;;;;;;;7.62;1.80;;;;;;;12.46;89.70;100191.08;1630209;87;21095;-84
2022/10/05 15:15:59;;;;;;;5.53;2.00;;;;;;;12.41;91.84;100187.63;1631062;87;20888;-84
2022/10/05 15:18:56;;;;;;;7.28;2.27;;;;;;;12.34;92.19;100194.95;1629834;87;21100;-73
2022/10/05 15:21:41;;;;;;;5.20;3.05;;;;;;;12.28;92.62;100195.38;1630223;87;21511;-71
2022/10/05 15:24:19;;;;;;;10.00;4.35;;;;;;;12.22;94.75;100192.74;1630225;87;21035;-73
2022/10/05 15:26:55;;;;;;;37.38;13.03;;;;;;;12.11;96.71;100196.07;1630390;88;21063;-72
2022/10/05 15:29:50;;;;;;;18.70;8.33;;;;;;;12.01;97.42;100195.73;1603416;89;21043;-72
2022/10/05 15:32:36;;;;;;;21.65;9.10;;;;;;;11.92;98.84;100200.34;1635076;86;21130;-72
2022/10/05 15:35:26;;;;;;;26.70;11.55;;;;;;;11.85;100.00;100205.45;1634833;87;21089;-72
2022/10/05 15:38:20;;;;;;;38.55;17.05;;;;;;;11.79;100.00;100210.80;1603695;88;21085;-79
2022/10/05 15:41:11;;;;;;;44.67;19.32;;;;;;;11.69;100.00;100215.11;1635011;86;21083;-77
2022/10/05 15:44:25;;;;;;;44.55;20.88;;;;;;;11.59;100.00;100212.00;1634861;86;21582;-80
2022/10/05 15:47:02;;;;;;;57.58;26.02;;;;;;;11.55;100.00;100211.02;1597287;89;21168;-75
2022/10/05 15:49:39;;;;;;;109.22;40.52;;;;;;;11.52;100.00;100213.00;1617165;87;21035;-83
2022/10/05 15:52:37;;;;;;;119.75;53.55;;;;;;;11.49;100.00;100215.80;1634294;87;21064;-86
2022/10/05 15:55:38;;;;;;;83.27;38.75;;;;;;;11.51;100.00;100208.62;1611321;86;21462;-87
2022/10/05 15:58:37;;;;;;;90.00;38.45;;;;;;;11.53;100.00;100216.00;1613143;88;21502;-83
2022/10/05 16:01:28;;;;;;;87.20;37.55;;;;;;;11.52;100.00;100212.44;1630185;86;21709;-82
2022/10/05 16:04:24;;;;;;;80.77;36.03;;;;;;;11.50;100.00;100213.87;1632191;86;20967;-87
2022/10/05 16:10:00;;;;;;;102.87;42.60;;;;;;;11.40;100.00;100215.44;1652801;86;21038;-81
2022/10/05 16:12:53;;;;;;;97.67;42.10;;;;;;;11.36;100.00;100217.98;1617765;88;21006;-84
2022/10/05 16:15:42;;;;;;;91.72;42.03;;;;;;;11.32;100.00;100220.27;1652703;86;20940;-82
2022/10/05 16:18:44;;;;;;;93.80;39.88;;;;;;;11.24;100.00;100232.22;1619376;88;21359;-83
2022/10/05 16:21:52;;;;;;;84.55;37.03;;;;;;;11.18;100.00;100229.31;1586760;89;20992;-84
2022/10/05 16:24:55;;;;;;;55.48;27.10;;;;;;;11.15;100.00;100238.72;1652681;86;21063;-81
2022/10/05 16:28:00;;;;;;;57.70;27.00;;;;;;;11.14;100.00;100235.72;1620715;87;21012;-86
2022/10/05 16:30:25;;;;;;;66.60;36.42;;;;;;;11.16;100.00;100232.92;1653447;86;21929;-77
2022/10/05 16:33:09;;;;;;;22.07;10.45;;;;;;;11.17;100.00;100235.11;1654471;83;21435;-76
2022/10/05 16:35:47;;;;;;;20.82;7.92;;;;;;;11.15;100.00;100231.84;1652910;86;21043;-78
2022/10/05 16:38:49;;;;;;;32.00;14.50;;;;;;;11.11;100.00;100228.08;1618553;86;21014;-80
2022/10/05 16:41:26;;;;;;;12.85;7.03;;;;;;;11.10;100.00;100231.38;1618049;87;21062;-79
2022/10/05 16:44:18;;;;;;;16.05;8.48;;;;;;;11.04;100.00;100229.84;1645584;86;21336;-84
2022/10/05 16:46:49;;;;;;;15.85;7.92;;;;;;;11.03;100.00;100221.91;1652344;86;21051;-79
2022/10/05 16:49:47;;;;;;;14.77;7.47;;;;;;;10.99;100.00;100232.68;1620202;87;20900;-77
2022/10/05 16:52:18;;;;;;;12.70;7.30;;;;;;;10.99;100.00;100222.25;1653600;85;21190;-79
2022/10/05 16:54:50;;;;;;;11.43;5.83;;;;;;;10.96;100.00;100224.26;1621449;88;20915;-77
2022/10/05 16:57:23;;;;;;;18.35;6.90;;;;;;;10.93;100.00;100217.99;1653980;86;21017;-78
2022/10/05 17:00:30;;;;;;;13.53;6.33;;;;;;;10.89;100.00;100214.47;1620518;87;20911;-84
2022/10/05 17:03:13;;;;;;;16.10;7.72;;;;;;;10.86;100.00;100217.00;1641776;86;21011;-83
2022/10/05 17:06:20;;;;;;;15.10;6.33;;;;;;;10.82;100.00;100218.72;1594697;88;21012;-80
2022/10/05 17:09:12;;;;;;;23.55;8.20;;;;;;;10.76;100.00;100222.67;1650319;85;21520;-86
2022/10/05 17:12:11;;;;;;;18.73;7.50;;;;;;;10.71;100.00;100225.50;1613634;88;21260;-83
2022/10/05 17:14:51;;;;;;;25.30;9.45;;;;;;;10.69;100.00;100226.36;1645294;86;20993;-79
2022/10/05 17:17:32;;;;;;;31.17;11.35;;;;;;;10.65;100.00;100231.63;1645202;87;20957;-76
2022/10/05 17:20:29;;;;;;;24.05;9.88;;;;;;;10.64;100.00;100226.44;1645459;87;20929;-83
2022/10/05 17:23:25;;;;;;;24.30;10.05;;;;;;;10.61;100.00;100231.16;1626668;87;36734;-74
2022/10/05 17:25:57;;;;;;;41.55;15.18;;;;;;;10.59;100.00;100232.83;1646108;86;21649;-86
2022/10/05 17:28:40;;;;;;;23.22;10.75;;;;;;;10.56;100.00;100236.17;1645551;87;20953;-80
2022/10/05 17:31:24;;;;;;;33.50;14.28;;;;;;;10.51;100.00;100245.30;1645935;85;21044;-78
2022/10/05 17:34:20;;;;;;;27.65;12.85;;;;;;;10.45;100.00;100242.38;1645047;85;20933;-86
2022/10/05 17:36:56;;;;;;;30.15;13.38;;;;;;;10.39;100.00;100244.97;1645481;87;21044;-86
2022/10/05 17:39:45;;;;;;;60.10;23.52;;;;;;;10.35;100.00;100243.11;1645501;87;21556;-74
2022/10/05 17:42:33;;;;;;;37.63;17.32;;;;;;;10.30;100.00;100243.19;1645166;87;21002;-86
2022/10/05 17:45:12;;;;;;;39.08;17.87;;;;;;;10.28;100.00;100237.18;1645485;85;21492;-87
2022/10/05 17:48:00;;;;;;;39.73;18.02;;;;;;;10.18;100.00;100232.63;1641356;86;21517;-88
2022/10/05 17:56:48;;;;;;;33.25;16.52;;;;;;;9.88;100.00;100225.62;1643634;87;21041;-83
2022/10/05 17:59:55;;;;;;;31.73;14.43;;;;;;;9.76;100.00;100239.79;1644002;87;21587;-83
2022/10/05 18:02:36;;;;;;;30.12;13.90;;;;;;;9.67;100.00;100245.66;1644156;86;21046;-85
2022/10/05 18:05:15;;;;;;;37.38;16.52;;;;;;;9.58;100.00;100252.89;1645035;87;21056;-83
2022/10/05 18:07:47;;;;;;;43.15;17.02;;;;;;;9.56;100.00;100249.06;1645464;87;21025;-83
2022/10/05 18:10:27;;;;;;;58.17;21.97;;;;;;;9.56;100.00;100233.17;1655658;85;20954;-84
2022/10/05 18:13:11;;;;;;;38.80;17.87;;;;;;;9.59;100.00;100228.48;1653661;86;20991;-79
2022/10/05 18:15:44;;;;;;;42.78;18.73;;;;;;;9.66;100.00;100236.35;1653704;86;21003;-81
2022/10/05 18:18:55;;;;;;;41.60;18.48;;;;;;;9.69;100.00;100233.03;1653462;85;21070;-80